Time;durP1;ratioP1;P1;durP2;ratioP2;P2;SDS_P1;SDS_P2;PMS_P1;PMS_P2;Temp;Humidity;BMP_temperature;BMP_pressure;BME280_temperature;BME280_humidity;BME280_pressure;Samples;Min_cycle;Max_cycle;Signal;HPM_P1;HPM_P2
2022/01/21 00:02:02;;;;;;;3.97;1.23;;;2.20;99.90;;;;;;10252890;28;84945;-49
2022/01/21 00:07:03;;;;;;;0.30;0.20;;;2.20;99.90;;;;;;10252646;28;86547;-47
2022/01/21 00:12:04;;;;;;;3.40;0.98;;;2.30;99.90;;;;;;10250485;28;85939;-50
2022/01/21 00:17:05;;;;;;;1.50;0.50;;;2.20;99.90;;;;;;10252920;28;84340;-50
2022/01/21 00:32:46;;;;;;;1.67;0.30;;;2.10;99.90;;;;;;10250601;28;87354;-46
2022/01/21 00:37:47;;;;;;;4.22;0.30;;;2.20;99.90;;;;;;10250146;28;87004;-46
2022/01/21 00:43:05;;;;;;;1.73;1.23;;;2.20;99.90;;;;;;10250321;28;87094;-48
2022/01/21 00:48:05;;;;;;;1.83;0.65;;;2.30;99.90;;;;;;10251437;28;84338;-46
2022/01/21 00:53:06;;;;;;;1.40;0.73;;;2.30;99.90;;;;;;10251418;28;84127;-50
2022/01/21 00:58:07;;;;;;;0.75;0.68;;;2.20;99.90;;;;;;10249053;28;86943;-47
2022/01/21 01:03:08;;;;;;;0.73;0.50;;;2.20;99.90;;;;;;10248530;28;86840;-47
2022/01/21 01:08:09;;;;;;;2.58;0.70;;;2.20;99.90;;;;;;10243418;28;84347;-48
2022/01/21 01:29:07;;;;;;;2.08;0.38;;;2.00;99.90;;;;;;10247942;28;85924;-47
2022/01/21 01:34:08;;;;;;;6.30;0.63;;;2.00;99.90;;;;;;10249623;28;84160;-48
2022/01/21 01:39:28;;;;;;;1.95;0.70;;;2.00;99.90;;;;;;10247813;28;86750;-48
2022/01/21 01:49:49;;;;;;;1.85;0.40;;;2.10;99.90;;;;;;10249256;28;84095;-47
2022/01/21 01:54:54;;;;;;;3.13;0.38;;;2.10;99.90;;;;;;10249538;28;84839;-47
2022/01/21 01:59:55;;;;;;;4.50;1.13;;;2.20;99.90;;;;;;10247376;28;85932;-48
2022/01/21 02:04:55;;;;;;;6.20;1.95;;;2.10;99.90;;;;;;10250253;28;84053;-47
2022/01/21 02:09:56;;;;;;;1.85;0.75;;;2.10;99.90;;;;;;10249115;28;85109;-49
2022/01/21 02:15:00;;;;;;;2.78;1.10;;;2.10;99.90;;;;;;10247076;28;87015;-48
2022/01/21 02:25:20;;;;;;;8.35;0.70;;;2.10;99.90;;;;;;10248913;28;84804;-47
2022/01/21 02:30:24;;;;;;;3.22;0.63;;;2.10;99.90;;;;;;10247943;28;84001;-50
2022/01/21 02:35:28;;;;;;;4.18;1.48;;;2.20;99.90;;;;;;10246572;28;86828;-47
2022/01/21 02:40:29;;;;;;;4.55;1.10;;;2.20;99.90;;;;;;10248133;28;84722;-47
2022/01/21 02:45:31;;;;;;;0.88;0.25;;;2.10;99.90;;;;;;10246114;28;85901;-50
2022/01/21 02:50:31;;;;;;;0.68;0.45;;;2.10;99.90;;;;;;10246507;28;86014;-51
2022/01/21 02:55:32;;;;;;;6.85;0.75;;;2.10;99.90;;;;;;10247561;28;84189;-48
2022/01/21 03:00:33;;;;;;;2.50;0.57;;;2.00;99.90;;;;;;10246463;28;87534;-47
2022/01/21 03:05:35;;;;;;;5.75;0.60;;;1.90;99.90;;;;;;10247938;28;84904;-49
2022/01/21 03:10:36;;;;;;;4.15;0.77;;;1.90;99.90;;;;;;10246929;28;85820;-48
2022/01/21 03:15:36;;;;;;;3.72;0.70;;;1.90;99.90;;;;;;10247603;28;84791;-50
2022/01/21 03:20:37;;;;;;;4.13;0.98;;;1.90;99.90;;;;;;10245759;28;86736;-46
2022/01/21 03:25:38;;;;;;;2.92;0.57;;;2.00;99.90;;;;;;10246682;28;84043;-51
2022/01/21 03:30:40;;;;;;;2.72;0.57;;;2.10;99.90;;;;;;10245410;28;85876;-48
2022/01/21 03:35:45;;;;;;;4.10;0.60;;;2.10;99.90;;;;;;10245024;28;86539;-50
2022/01/21 03:40:46;;;;;;;3.83;0.90;;;2.00;99.90;;;;;;10244920;28;84999;-50
2022/01/21 03:45:48;;;;;;;5.20;1.17;;;2.00;99.90;;;;;;10246798;28;84138;-49
2022/01/21 03:50:49;;;;;;;3.25;0.55;;;2.00;99.90;;;;;;10245982;28;86452;-50
2022/01/21 03:55:50;;;;;;;5.38;0.80;;;2.10;99.90;;;;;;10245504;28;85876;-46
2022/01/21 04:00:53;;;;;;;3.10;0.95;;;2.10;99.90;;;;;;10244697;28;85987;-46
2022/01/21 04:05:54;;;;;;;14.55;1.58;;;2.10;99.90;;;;;;10244389;28;86737;-48
2022/01/21 04:10:55;;;;;;;2.80;0.63;;;2.20;99.90;;;;;;10244488;28;85322;-50
2022/01/21 04:15:58;;;;;;;0.53;0.40;;;2.10;99.90;;;;;;10242013;28;85806;-50
2022/01/21 04:20:59;;;;;;;1.23;0.43;;;2.20;99.90;;;;;;10242721;28;86732;-50
2022/01/21 04:26:01;;;;;;;0.43;0.40;;;2.20;99.90;;;;;;10242735;28;86003;-48
2022/01/21 04:31:02;;;;;;;0.60;0.20;;;2.20;99.90;;;;;;10242256;28;86467;-51
2022/01/21 04:36:25;;;;;;;0.98;0.40;;;2.20;99.90;;;;;;10242815;28;85782;-50
2022/01/21 04:52:04;;;;;;;1.27;0.70;;;2.40;99.90;;;;;;10244971;28;86120;-47
2022/01/21 04:57:16;;;;;;;5.30;0.47;;;2.40;99.90;;;;;;10249089;28;84140;-54
2022/01/21 05:02:18;;;;;;;0.60;0.43;;;2.40;99.90;;;;;;10249215;28;85947;-47
2022/01/21 05:07:23;;;;;;;11.13;1.70;;;2.40;99.90;;;;;;10248484;28;85927;-45
2022/01/21 05:12:26;;;;;;;0.63;0.20;;;2.40;99.90;;;;;;10246612;28;84271;-46
2022/01/21 05:17:28;;;;;;;13.05;1.40;;;2.40;99.90;;;;;;10246520;28;85939;-49
2022/01/21 05:22:29;;;;;;;1.10;0.57;;;2.40;99.90;;;;;;10252035;28;85055;-46
2022/01/21 05:27:31;;;;;;;4.85;0.90;;;2.40;99.90;;;;;;10248353;28;85834;-50
2022/01/21 05:32:32;;;;;;;3.00;0.22;;;2.30;99.90;;;;;;10299777;23;86620;-42
2022/01/21 05:37:45;;;;;;;0.65;0.38;;;2.30;99.90;;;;;;10288647;28;85741;-44
2022/01/21 05:42:58;;;;;;;0.68;0.22;;;2.20;99.90;;;;;;10288811;28;85752;-41
2022/01/21 05:48:17;;;;;;;5.78;0.50;;;2.20;99.90;;;;;;10290540;28;84475;-43
2022/01/21 05:53:36;;;;;;;0.85;0.30;;;2.20;99.90;;;;;;10288077;28;84441;-43
2022/01/21 05:58:47;;;;;;;6.53;0.57;;;2.30;99.90;;;;;;10287114;28;87051;-42
2022/01/21 06:03:49;;;;;;;2.70;0.45;;;2.40;99.90;;;;;;10287992;28;85944;-44
2022/01/21 06:08:49;;;;;;;1.20;0.40;;;2.40;99.90;;;;;;10287157;28;86774;-45
2022/01/21 06:13:51;;;;;;;0.60;0.30;;;2.50;99.90;;;;;;10284765;28;85922;-41
2022/01/21 06:18:52;;;;;;;12.10;1.38;;;2.50;99.90;;;;;;10286460;28;86120;-40
2022/01/21 06:23:52;;;;;;;0.50;0.30;;;2.50;99.90;;;;;;10288948;28;84194;-45
2022/01/21 06:28:53;;;;;;;1.02;0.68;;;2.60;99.90;;;;;;10286379;28;84238;-45
2022/01/21 06:33:54;;;;;;;6.57;0.73;;;2.60;99.90;;;;;;10287047;28;84906;-44
2022/01/21 06:38:55;;;;;;;1.45;0.57;;;2.60;99.90;;;;;;10285302;28;84948;-47
2022/01/21 06:43:55;;;;;;;6.30;1.13;;;2.70;99.90;;;;;;10285722;28;84027;-43
2022/01/21 06:48:56;;;;;;;2.10;0.57;;;2.70;99.90;;;;;;10284952;28;84826;-42
2022/01/21 06:53:57;;;;;;;4.80;0.47;;;2.70;99.90;;;;;;10278761;28;84932;-43
2022/01/21 06:58:58;;;;;;;4.03;0.98;;;2.70;99.90;;;;;;10281578;28;84767;-49
2022/01/21 07:03:58;;;;;;;0.93;0.47;;;2.60;99.90;;;;;;10281703;28;84265;-47
2022/01/21 07:09:00;;;;;;;0.50;0.30;;;2.60;99.90;;;;;;10281783;28;84193;-45
2022/01/21 07:14:01;;;;;;;1.77;0.90;;;2.60;99.90;;;;;;10286276;28;85489;-46
2022/01/21 07:19:02;;;;;;;0.90;0.60;;;2.60;99.90;;;;;;10285723;28;84060;-45
2022/01/21 07:24:03;;;;;;;5.53;0.85;;;2.60;99.90;;;;;;10285117;28;84861;-42
2022/01/21 07:29:04;;;;;;;4.30;1.85;;;2.60;99.90;;;;;;10283328;28;84925;-48
2022/01/21 07:34:06;;;;;;;3.55;1.35;;;2.70;99.90;;;;;;10283463;28;86588;-47
2022/01/21 07:39:06;;;;;;;2.42;1.70;;;2.80;99.90;;;;;;10284422;28;85050;-48
2022/01/21 07:44:07;;;;;;;0.70;0.50;;;2.80;99.90;;;;;;10284320;28;87014;-45
2022/01/21 07:49:09;;;;;;;1.20;0.55;;;2.90;99.90;;;;;;10296264;28;84807;-46
2022/01/21 07:54:10;;;;;;;4.05;0.82;;;2.90;99.90;;;;;;10275185;28;84365;-45
2022/01/21 07:59:13;;;;;;;3.22;0.60;;;2.90;99.90;;;;;;10281953;28;84767;-50
2022/01/21 08:04:14;;;;;;;5.72;1.02;;;2.90;99.90;;;;;;10282823;28;86091;-48
2022/01/21 08:09:15;;;;;;;3.35;0.93;;;2.90;99.90;;;;;;10279398;28;84806;-46
2022/01/21 08:14:15;;;;;;;0.77;0.47;;;2.90;99.90;;;;;;10281636;28;85851;-47
2022/01/21 08:19:16;;;;;;;4.10;1.95;;;3.00;99.90;;;;;;10286635;28;84926;-49
2022/01/21 08:24:16;;;;;;;1.35;0.35;;;3.00;99.90;;;;;;10290229;28;84128;-49
2022/01/21 08:29:17;;;;;;;4.13;0.40;;;3.00;99.90;;;;;;10289515;28;84805;-50
2022/01/21 08:34:18;;;;;;;1.55;0.75;;;3.20;99.90;;;;;;10290987;28;86928;-50
2022/01/21 08:39:18;;;;;;;0.75;0.50;;;3.50;99.90;;;;;;10292711;28;84415;-48
2022/01/21 08:44:19;;;;;;;2.72;1.20;;;3.70;99.90;;;;;;10289471;28;84171;-45
2022/01/21 08:49:21;;;;;;;5.20;1.02;;;3.80;99.90;;;;;;10297083;28;84128;-44
2022/01/21 08:54:22;;;;;;;5.25;0.80;;;3.70;99.90;;;;;;10296270;28;85804;-49
2022/01/21 08:59:23;;;;;;;0.88;0.43;;;3.60;99.90;;;;;;10284275;28;84514;-46
2022/01/21 09:04:24;;;;;;;6.38;1.08;;;3.70;99.90;;;;;;10286538;28;84781;-49
2022/01/21 09:09:25;;;;;;;5.93;0.63;;;3.90;99.90;;;;;;10289353;28;84889;-47
2022/01/21 09:14:30;;;;;;;1.83;0.45;;;4.30;15.30;;;;;;10288198;28;87244;-45
2022/01/21 09:19:32;;;;;;;2.33;0.57;;;4.70;1.00;;;;;;10289997;28;84963;-49
2022/01/21 09:24:33;;;;;;;4.47;1.17;;;4.50;1.00;;;;;;10289376;28;84886;-49
2022/01/21 09:29:34;;;;;;;0.55;0.40;;;4.40;1.00;;;;;;10289527;28;84144;-49
2022/01/21 09:34:35;;;;;;;4.07;0.73;;;4.50;1.00;;;;;;10283809;28;84838;-50
2022/01/21 09:39:36;;;;;;;0.63;0.43;;;4.70;1.00;;;;;;10287371;28;84903;-48
2022/01/21 09:44:38;;;;;;;1.33;0.60;;;4.70;1.00;;;;;;10285486;28;84068;-48
2022/01/21 09:49:41;;;;;;;2.47;0.85;;;4.70;1.00;;;;;;10281400;28;85870;-48
2022/01/21 09:54:45;;;;;;;7.10;1.15;;;4.70;1.00;;;;;;10285766;28;84913;-46
2022/01/21 09:59:46;;;;;;;2.70;0.90;;;5.00;1.00;;;;;;10288348;28;84731;-48
2022/01/21 10:04:50;;;;;;;7.60;0.80;;;5.70;1.00;;;;;;10289008;28;85111;-48
2022/01/21 10:09:52;;;;;;;3.55;0.70;;;6.20;99.90;;;;;;10288334;28;84836;-44
2022/01/21 10:14:53;;;;;;;5.53;0.98;;;6.70;99.90;;;;;;10287879;28;84321;-46
2022/01/21 10:19:53;;;;;;;3.85;0.98;;;6.50;1.00;;;;;;10287490;28;84098;-46
2022/01/21 10:25:00;;;;;;;3.63;0.50;;;6.90;1.00;;;;;;10279938;28;84083;-46
2022/01/21 10:30:06;;;;;;;2.78;0.85;;;6.90;1.00;;;;;;10277418;28;84187;-44
2022/01/21 10:35:30;;;;;;;4.10;0.50;;;6.80;1.00;;;;;;10285620;28;85434;-45
2022/01/21 10:40:34;;;;;;;1.98;0.70;;;6.50;1.00;;;;;;10282346;28;84264;-45
2022/01/21 10:45:57;;;;;;;4.32;0.95;;;6.30;3.40;;;;;;10283755;28;84223;-48
2022/01/21 10:51:23;;;;;;;4.53;0.68;;;6.30;1.00;;;;;;10283511;28;84908;-47
2022/01/21 10:56:25;;;;;;;5.63;0.98;;;6.20;99.90;;;;;;10284152;28;84325;-46
2022/01/21 11:01:29;;;;;;;6.95;0.60;;;6.20;92.90;;;;;;10279401;28;84865;-45
2022/01/21 11:06:42;;;;;;;4.22;0.70;;;6.50;4.70;;;;;;10280302;28;84989;-49
2022/01/21 11:11:45;;;;;;;9.13;1.65;;;6.40;1.00;;;;;;10276540;28;84984;-49
2022/01/21 11:16:48;;;;;;;3.88;1.20;;;6.20;1.00;;;;;;10281365;28;84234;-47
2022/01/21 11:21:53;;;;;;;2.90;0.68;;;6.00;99.90;;;;;;10283089;28;84279;-48
2022/01/21 11:27:14;;;;;;;3.17;0.63;;;6.40;99.90;;;;;;10281800;28;84838;-47
2022/01/21 11:32:16;;;;;;;3.60;0.70;;;6.80;1.00;;;;;;10302368;22;84275;-49
2022/01/21 11:37:18;;;;;;;2.25;0.77;;;7.00;1.00;;;;;;10241700;28;84234;-45
2022/01/21 11:42:18;;;;;;;4.10;1.02;;;7.00;1.00;;;;;;10242010;28;84863;-53
2022/01/21 11:47:48;;;;;;;3.70;0.88;;;6.90;1.00;;;;;;10235604;28;85946;-49
2022/01/21 11:52:49;;;;;;;4.88;0.73;;;6.70;1.00;;;;;;10240324;28;84934;-53
2022/01/21 11:58:09;;;;;;;1.80;0.32;;;6.60;99.90;;;;;;10241316;28;84428;-50
2022/01/21 12:03:09;;;;;;;9.05;1.10;;;6.50;99.90;;;;;;10241724;28;85255;-52
2022/01/21 12:08:10;;;;;;;5.40;1.20;;;6.40;99.90;;;;;;10244550;28;84868;-58
2022/01/21 12:13:21;;;;;;;6.50;1.13;;;6.50;99.90;;;;;;10244885;28;85086;-58
2022/01/21 12:23:50;;;;;;;4.97;1.00;;;6.30;99.90;;;;;;10239466;28;84193;-57
2022/01/21 12:28:57;;;;;;;2.35;0.80;;;6.30;1.00;;;;;;10242603;28;85932;-51
2022/01/21 12:34:05;;;;;;;3.63;1.27;;;6.60;99.90;;;;;;10239886;28;84235;-58
2022/01/21 12:39:35;;;;;;;2.40;1.60;;;6.60;99.90;;;;;;10243428;28;84418;-56
2022/01/21 12:44:37;;;;;;;5.60;1.13;;;6.50;99.90;;;;;;10230770;28;84297;-53
2022/01/21 12:49:49;;;;;;;4.72;1.33;;;6.40;1.00;;;;;;10243707;28;84169;-56
2022/01/21 13:00:27;;;;;;;2.90;0.93;;;6.20;1.00;;;;;;10242993;28;84917;-53
2022/01/21 13:05:38;;;;;;;1.25;0.70;;;6.10;1.00;;;;;;10244329;28;84923;-54
2022/01/21 13:10:39;;;;;;;2.78;1.10;;;5.90;1.00;;;;;;10245102;28;85107;-52
2022/01/21 13:15:45;;;;;;;4.63;0.82;;;5.70;99.90;;;;;;10245509;28;84302;-52
2022/01/21 13:20:51;;;;;;;2.50;0.28;;;5.60;99.90;;;;;;10248560;28;84241;-57
2022/01/21 13:25:51;;;;;;;6.85;0.68;;;5.60;99.90;;;;;;10249300;28;84136;-51
2022/01/21 13:30:52;;;;;;;6.55;1.15;;;5.60;99.90;;;;;;10249534;28;84800;-55
2022/01/21 13:35:53;;;;;;;4.25;0.60;;;5.60;99.90;;;;;;10247774;28;85070;-51
2022/01/21 13:40:58;;;;;;;6.68;0.98;;;5.60;99.90;;;;;;10247535;28;84175;-57
2022/01/21 13:46:10;;;;;;;1.40;0.70;;;5.70;99.90;;;;;;10248635;28;84167;-55
2022/01/21 13:51:11;;;;;;;2.33;0.88;;;5.70;99.90;;;;;;10241552;28;84788;-59
2022/01/21 13:56:15;;;;;;;2.05;1.25;;;5.60;99.90;;;;;;10243529;28;85815;-52
2022/01/21 14:01:21;;;;;;;2.35;0.82;;;5.70;99.90;;;;;;10240001;28;84617;-57
2022/01/21 14:06:22;;;;;;;6.90;1.27;;;5.80;99.90;;;;;;10236529;28;84776;-56
2022/01/21 14:11:27;;;;;;;5.45;1.67;;;5.80;99.90;;;;;;10245316;28;84907;-58
2022/01/21 14:16:40;;;;;;;2.85;1.30;;;5.70;99.90;;;;;;10238658;28;85811;-55
2022/01/21 14:21:45;;;;;;;2.55;1.42;;;5.80;99.90;;;;;;10242157;28;85442;-61
2022/01/21 14:26:54;;;;;;;5.35;1.65;;;5.80;99.90;;;;;;10241576;28;84246;-57
2022/01/21 14:32:00;;;;;;;4.15;1.35;;;5.80;99.90;;;;;;10246977;28;84173;-56
2022/01/21 14:37:08;;;;;;;6.50;2.20;;;5.80;99.90;;;;;;10245762;28;87109;-56
2022/01/21 14:42:10;;;;;;;7.13;1.40;;;5.90;99.90;;;;;;10245324;28;84735;-51
2022/01/21 14:47:16;;;;;;;2.63;1.25;;;5.80;99.90;;;;;;10247887;28;84869;-56
2022/01/21 14:57:29;;;;;;;5.55;1.55;;;5.90;99.90;;;;;;10242890;28;84839;-55
2022/01/21 15:02:40;;;;;;;5.80;2.00;;;5.90;99.90;;;;;;10246192;28;84284;-53
2022/01/21 15:07:45;;;;;;;5.55;1.77;;;6.00;99.90;;;;;;10243281;28;84235;-54
2022/01/21 15:18:05;;;;;;;3.90;1.90;;;6.00;99.90;;;;;;10241975;28;84257;-56
2022/01/21 15:23:06;;;;;;;7.70;2.22;;;6.00;99.90;;;;;;10244934;28;84555;-55
2022/01/21 15:28:08;;;;;;;8.15;2.00;;;6.00;99.90;;;;;;10243202;28;85247;-58
2022/01/21 15:33:09;;;;;;;5.30;2.13;;;5.90;99.90;;;;;;10246141;28;84134;-56
2022/01/21 15:38:09;;;;;;;3.45;1.60;;;6.00;99.90;;;;;;10244949;28;85126;-57
2022/01/21 15:43:10;;;;;;;4.70;2.05;;;6.00;99.90;;;;;;10241171;28;84995;-59
2022/01/21 15:48:11;;;;;;;8.43;2.50;;;6.00;99.90;;;;;;10244884;28;84070;-60
2022/01/21 15:53:13;;;;;;;5.15;2.10;;;6.10;99.90;;;;;;10240747;28;84784;-56
2022/01/21 15:58:14;;;;;;;4.10;2.33;;;6.10;99.90;;;;;;10242564;28;84763;-61
2022/01/21 16:03:15;;;;;;;7.90;2.85;;;6.10;99.90;;;;;;10245819;28;84203;-58
2022/01/21 16:08:16;;;;;;;7.03;1.90;;;6.00;99.90;;;;;;10245392;28;84161;-57
2022/01/21 16:13:16;;;;;;;10.88;2.75;;;6.10;99.90;;;;;;10245094;28;84895;-58
2022/01/21 16:18:17;;;;;;;4.70;2.33;;;6.10;99.90;;;;;;10244959;28;84968;-58
2022/01/21 16:23:18;;;;;;;5.95;1.92;;;6.20;99.90;;;;;;10235597;28;84891;-52
2022/01/21 16:28:20;;;;;;;7.07;2.50;;;6.30;99.90;;;;;;10241031;28;85326;-60
2022/01/21 16:33:22;;;;;;;6.90;1.55;;;6.30;99.90;;;;;;10239144;28;84949;-63
2022/01/21 16:38:22;;;;;;;9.38;2.05;;;6.30;99.90;;;;;;10240983;28;84095;-57
2022/01/21 16:43:23;;;;;;;8.13;1.77;;;6.40;99.90;;;;;;10246864;28;84381;-54
2022/01/21 16:48:24;;;;;;;6.93;2.08;;;6.50;99.90;;;;;;10247826;28;84097;-59
2022/01/21 16:53:26;;;;;;;2.42;1.40;;;6.40;99.90;;;;;;10242259;28;84747;-55
2022/01/21 16:58:27;;;;;;;8.35;2.05;;;6.50;99.90;;;;;;10257840;28;85292;-60
2022/01/21 17:03:28;;;;;;;6.43;1.30;;;6.50;99.90;;;;;;10248895;28;84810;-60
2022/01/21 17:08:29;;;;;;;4.22;1.75;;;6.50;99.90;;;;;;10252006;28;84270;-59
2022/01/21 17:13:30;;;;;;;2.92;1.17;;;6.40;99.90;;;;;;10251633;28;84153;-58
2022/01/21 17:18:32;;;;;;;6.93;2.47;;;6.50;99.90;;;;;;10245210;28;84327;-56
2022/01/21 17:23:33;;;;;;;6.85;2.70;;;6.50;99.90;;;;;;10249697;28;84058;-59
2022/01/21 17:28:33;;;;;;;5.70;1.77;;;6.50;99.90;;;;;;10247176;28;84780;-56
2022/01/21 17:33:34;;;;;;;7.32;1.90;;;6.50;99.90;;;;;;10252081;23;84433;-51
2022/01/21 17:38:35;;;;;;;5.95;1.38;;;6.50;99.90;;;;;;10243161;28;85066;-49
2022/01/21 17:43:37;;;;;;;4.78;1.52;;;6.40;99.90;;;;;;10236022;28;86444;-48
2022/01/21 17:48:38;;;;;;;6.32;1.60;;;6.20;99.90;;;;;;10210842;28;87117;-52
2022/01/21 17:53:39;;;;;;;5.20;1.58;;;6.20;99.90;;;;;;10203710;28;85671;-50
2022/01/21 17:58:39;;;;;;;6.50;2.10;;;6.20;99.90;;;;;;10206611;28;84298;-54
2022/01/21 18:03:40;;;;;;;5.97;1.50;;;6.10;99.90;;;;;;10200755;28;84464;-52
2022/01/21 18:08:47;;;;;;;3.40;1.67;;;6.10;99.90;;;;;;10211829;28;84974;-53
2022/01/21 18:13:47;;;;;;;2.80;1.55;;;6.10;99.90;;;;;;10189387;28;84251;-52
2022/01/21 18:18:48;;;;;;;4.13;1.52;;;6.10;99.90;;;;;;10195090;28;85276;-52
2022/01/21 18:23:49;;;;;;;9.80;2.45;;;6.10;99.90;;;;;;10204420;28;84984;-53
2022/01/21 18:28:50;;;;;;;8.68;2.00;;;6.10;99.90;;;;;;10207137;28;84911;-51
2022/01/21 18:33:51;;;;;;;6.00;1.92;;;6.10;99.90;;;;;;10205665;28;84824;-48
2022/01/21 18:38:52;;;;;;;4.20;2.10;;;6.10;99.90;;;;;;10210945;28;84113;-51
2022/01/21 18:43:55;;;;;;;14.70;3.05;;;6.10;99.90;;;;;;10199259;28;84905;-50
2022/01/21 18:48:56;;;;;;;7.93;2.38;;;6.10;99.90;;;;;;10203500;28;84347;-52
2022/01/21 18:53:57;;;;;;;3.95;1.73;;;6.10;99.90;;;;;;10203468;28;84892;-48
2022/01/21 18:58:58;;;;;;;3.65;1.90;;;6.10;99.90;;;;;;10195360;28;85085;-54
2022/01/21 19:04:01;;;;;;;7.70;2.35;;;6.10;99.90;;;;;;10209538;28;85116;-53
2022/01/21 19:09:07;;;;;;;7.28;1.67;;;6.10;99.90;;;;;;10210807;28;84598;-52
2022/01/21 19:14:07;;;;;;;7.63;2.90;;;6.10;99.90;;;;;;10201943;28;85166;-51
2022/01/21 19:19:08;;;;;;;4.18;2.22;;;6.20;99.90;;;;;;10206791;28;84511;-52
2022/01/21 19:24:13;;;;;;;4.75;2.10;;;6.20;99.90;;;;;;10224656;28;84911;-53
2022/01/21 19:29:14;;;;;;;7.05;2.38;;;6.10;99.90;;;;;;10247315;28;84061;-51
2022/01/21 19:34:15;;;;;;;5.63;2.63;;;6.10;99.90;;;;;;10261693;28;84152;-52
2022/01/21 19:39:15;;;;;;;11.65;3.65;;;6.10;99.90;;;;;;10213191;28;84572;-50
2022/01/21 19:44:16;;;;;;;6.72;2.67;;;6.10;99.90;;;;;;10213258;28;85555;-49
2022/01/21 19:49:17;;;;;;;5.90;2.50;;;6.20;99.90;;;;;;10205292;28;84127;-53
2022/01/21 19:54:18;;;;;;;5.90;2.42;;;6.10;99.90;;;;;;10215877;28;85039;-53
2022/01/21 19:59:34;;;;;;;5.22;2.70;;;6.10;99.90;;;;;;10216767;28;84978;-51
2022/01/21 20:09:54;;;;;;;4.50;2.45;;;6.10;99.90;;;;;;10202046;28;86058;-49
2022/01/21 20:15:09;;;;;;;4.10;1.70;;;6.00;99.90;;;;;;10213304;28;84094;-48
2022/01/21 20:20:11;;;;;;;4.50;3.00;;;6.00;99.90;;;;;;10236229;28;84813;-49
2022/01/21 20:25:12;;;;;;;5.25;2.70;;;5.90;99.90;;;;;;10267103;28;84156;-53
2022/01/21 20:30:13;;;;;;;3.30;2.28;;;5.90;99.90;;;;;;10251887;28;85026;-54
2022/01/21 20:35:14;;;;;;;6.57;2.55;;;5.90;99.90;;;;;;10240752;28;84968;-49
2022/01/21 20:45:26;;;;;;;4.18;2.58;;;6.00;99.90;;;;;;10221788;28;86047;-53
2022/01/21 20:50:27;;;;;;;6.60;2.80;;;6.00;99.90;;;;;;10211416;28;86116;-54
2022/01/21 20:55:28;;;;;;;5.47;2.50;;;5.90;99.90;;;;;;10208900;28;87243;-52
2022/01/21 21:00:29;;;;;;;5.65;2.63;;;5.90;99.90;;;;;;10211217;28;85126;-50
2022/01/21 21:05:30;;;;;;;7.20;2.95;;;6.00;99.90;;;;;;10207998;28;86123;-54
2022/01/21 21:10:31;;;;;;;7.18;2.45;;;5.90;99.90;;;;;;10217776;28;84328;-49
2022/01/21 21:15:34;;;;;;;11.65;3.17;;;5.90;99.90;;;;;;10221492;28;84401;-50
2022/01/21 21:24:00;;;;;;;5.47;2.72;;;5.90;99.90;;;;;;10250298;28;84812;-51
2022/01/21 23:01:03;;;;;;;2.42;1.45;;;5.70;99.90;;;;;;10207590;28;84254;-49
2022/01/21 23:06:08;;;;;;;3.15;1.17;;;5.70;99.90;;;;;;10205888;28;84873;-48
2022/01/21 23:11:12;;;;;;;3.30;1.65;;;5.60;99.90;;;;;;10205668;28;85212;-49
2022/01/21 23:16:13;;;;;;;3.60;1.67;;;5.70;99.90;;;;;;10236877;28;84151;-48
2022/01/21 23:21:19;;;;;;;3.15;1.60;;;5.70;99.90;;;;;;10260090;28;86120;-47
2022/01/21 23:26:20;;;;;;;5.47;1.88;;;5.70;99.90;;;;;;10244991;28;84713;-50
2022/01/21 23:31:21;;;;;;;4.55;1.95;;;5.70;99.90;;;;;;10245241;28;84683;-48
2022/01/21 23:36:23;;;;;;;6.22;1.88;;;5.70;99.90;;;;;;10260679;22;85005;-58
2022/01/21 23:41:23;;;;;;;3.28;1.52;;;5.70;99.90;;;;;;10246269;28;84202;-58
2022/01/21 23:46:24;;;;;;;3.10;1.50;;;5.70;99.90;;;;;;10252309;28;84134;-55
2022/01/21 23:51:25;;;;;;;3.55;1.80;;;5.70;99.90;;;;;;10285729;28;84737;-54
2022/01/21 23:56:25;;;;;;;1.90;1.55;;;5.70;99.90;;;;;;10285823;28;84854;-54
